sensor_id;sensor_type;location;lat;lon;timestamp;noise_LAeq;noise_LA_min;noise_LA_max;noise_LA01;noise_LA95
37162;Laerm;68342;52.598;13.450;2023-04-25T00:00:33;39.38;32.69;52.85;;
37162;Laerm;68342;52.598;13.450;2023-04-25T00:02:58;36.76;31.07;54.39;;
37162;Laerm;68342;52.598;13.450;2023-04-25T00:05:25;36.99;30.99;50.77;;
37162;Laerm;68342;52.598;13.450;2023-04-25T00:07:50;38.04;32.17;50.88;;
37162;Laerm;68342;52.598;13.450;2023-04-25T00:10:16;36.87;30.57;49.79;;
37162;Laerm;68342;52.598;13.450;2023-04-25T00:12:41;37.48;30.51;54.31;;
37162;Laerm;68342;52.598;13.450;2023-04-25T00:15:07;39.16;32.93;53.32;;
37162;Laerm;68342;52.598;13.450;2023-04-25T00:17:32;41.05;32.63;52.27;;
37162;Laerm;68342;52.598;13.450;2023-04-25T00:19:57;40.64;32.85;50.43;;
37162;Laerm;68342;52.598;13.450;2023-04-25T00:22:23;39.01;33.58;55.20;;
37162;Laerm;68342;52.598;13.450;2023-04-25T00:24:48;38.65;31.53;52.70;;
37162;Laerm;68342;52.598;13.450;2023-04-25T00:27:14;40.53;33.47;50.70;;
37162;Laerm;68342;52.598;13.450;2023-04-25T00:29:39;41.37;31.80;55.14;;
37162;Laerm;68342;52.598;13.450;2023-04-25T00:32:04;40.99;32.78;59.90;;
37162;Laerm;68342;52.598;13.450;2023-04-25T00:34:29;40.84;33.99;53.80;;
37162;Laerm;68342;52.598;13.450;2023-04-25T00:36:55;38.41;32.11;58.55;;
37162;Laerm;68342;52.598;13.450;2023-04-25T00:39:20;41.48;33.43;51.98;;
37162;Laerm;68342;52.598;13.450;2023-04-25T00:41:45;44.29;34.05;57.50;;
37162;Laerm;68342;52.598;13.450;2023-04-25T00:44:11;42.98;32.19;67.72;;
37162;Laerm;68342;52.598;13.450;2023-04-25T00:46:37;39.62;32.44;53.13;;
37162;Laerm;68342;52.598;13.450;2023-04-25T00:49:03;52.33;37.64;67.16;;
37162;Laerm;68342;52.598;13.450;2023-04-25T00:51:29;42.11;33.91;54.40;;
37162;Laerm;68342;52.598;13.450;2023-04-25T00:53:55;41.05;33.77;51.08;;
37162;Laerm;68342;52.598;13.450;2023-04-25T00:56:20;40.46;33.14;55.26;;
37162;Laerm;68342;52.598;13.450;2023-04-25T00:58:46;40.32;32.20;49.49;;
37162;Laerm;68342;52.598;13.450;2023-04-25T01:01:12;39.57;33.00;59.18;;
37162;Laerm;68342;52.598;13.450;2023-04-25T01:03:38;40.72;33.56;54.57;;
37162;Laerm;68342;52.598;13.450;2023-04-25T01:06:07;38.26;31.74;50.71;;
37162;Laerm;68342;52.598;13.450;2023-04-25T01:08:32;39.90;33.61;51.40;;
37162;Laerm;68342;52.598;13.450;2023-04-25T01:10:58;41.47;34.03;52.35;;
37162;Laerm;68342;52.598;13.450;2023-04-25T01:13:23;38.80;33.08;52.87;;
37162;Laerm;68342;52.598;13.450;2023-04-25T01:15:49;39.68;31.06;52.12;;
37162;Laerm;68342;52.598;13.450;2023-04-25T01:18:14;41.61;31.81;59.74;;
37162;Laerm;68342;52.598;13.450;2023-04-25T01:20:40;38.85;32.12;51.89;;
37162;Laerm;68342;52.598;13.450;2023-04-25T01:23:06;38.89;33.45;52.14;;
37162;Laerm;68342;52.598;13.450;2023-04-25T01:25:32;39.91;34.46;50.27;;
37162;Laerm;68342;52.598;13.450;2023-04-25T01:27:58;39.30;32.29;51.19;;
37162;Laerm;68342;52.598;13.450;2023-04-25T01:30:24;39.68;32.47;53.10;;
37162;Laerm;68342;52.598;13.450;2023-04-25T01:32:50;39.96;33.29;53.72;;
37162;Laerm;68342;52.598;13.450;2023-04-25T01:35:16;42.51;34.09;52.09;;
37162;Laerm;68342;52.598;13.450;2023-04-25T01:37:41;41.97;32.13;53.68;;
37162;Laerm;68342;52.598;13.450;2023-04-25T01:40:08;41.12;33.25;55.73;;
37162;Laerm;68342;52.598;13.450;2023-04-25T01:42:34;42.97;37.25;58.56;;
37162;Laerm;68342;52.598;13.450;2023-04-25T01:45:00;40.45;35.28;52.93;;
37162;Laerm;68342;52.598;13.450;2023-04-25T01:47:25;42.66;33.31;52.31;;
37162;Laerm;68342;52.598;13.450;2023-04-25T01:49:51;39.54;33.35;57.49;;
37162;Laerm;68342;52.598;13.450;2023-04-25T01:52:16;39.54;33.78;56.55;;
37162;Laerm;68342;52.598;13.450;2023-04-25T01:54:41;42.81;34.88;55.92;;
37162;Laerm;68342;52.598;13.450;2023-04-25T01:57:09;40.67;33.38;52.72;;
37162;Laerm;68342;52.598;13.450;2023-04-25T01:59:35;40.76;35.05;52.71;;
37162;Laerm;68342;52.598;13.450;2023-04-25T02:02:01;42.95;34.81;52.35;;
37162;Laerm;68342;52.598;13.450;2023-04-25T02:04:28;41.81;32.91;50.80;;
37162;Laerm;68342;52.598;13.450;2023-04-25T02:06:54;38.94;33.81;51.97;;
37162;Laerm;68342;52.598;13.450;2023-04-25T02:09:19;41.42;33.80;53.22;;
37162;Laerm;68342;52.598;13.450;2023-04-25T02:11:45;42.82;32.74;58.76;;
37162;Laerm;68342;52.598;13.450;2023-04-25T02:14:10;42.53;36.19;54.38;;
37162;Laerm;68342;52.598;13.450;2023-04-25T02:16:35;40.72;34.91;50.71;;
37162;Laerm;68342;52.598;13.450;2023-04-25T02:19:00;39.57;32.95;50.39;;
37162;Laerm;68342;52.598;13.450;2023-04-25T02:21:26;40.10;34.59;53.62;;
37162;Laerm;68342;52.598;13.450;2023-04-25T02:23:51;40.39;34.13;51.69;;
37162;Laerm;68342;52.598;13.450;2023-04-25T02:26:17;42.90;35.98;55.64;;
37162;Laerm;68342;52.598;13.450;2023-04-25T02:28:42;42.73;35.72;54.34;;
37162;Laerm;68342;52.598;13.450;2023-04-25T02:31:07;41.11;34.82;51.92;;
37162;Laerm;68342;52.598;13.450;2023-04-25T02:33:32;42.66;36.83;50.32;;
37162;Laerm;68342;52.598;13.450;2023-04-25T02:35:58;42.68;35.85;61.80;;
37162;Laerm;68342;52.598;13.450;2023-04-25T02:38:23;42.78;37.53;50.81;;
37162;Laerm;68342;52.598;13.450;2023-04-25T02:40:48;41.74;36.60;50.91;;
37162;Laerm;68342;52.598;13.450;2023-04-25T02:43:13;42.99;36.76;56.00;;
37162;Laerm;68342;52.598;13.450;2023-04-25T02:45:39;42.72;37.77;50.41;;
37162;Laerm;68342;52.598;13.450;2023-04-25T02:48:04;41.83;35.38;52.16;;
37162;Laerm;68342;52.598;13.450;2023-04-25T02:50:29;41.47;35.56;53.79;;
37162;Laerm;68342;52.598;13.450;2023-04-25T02:52:55;42.40;38.37;52.26;;
37162;Laerm;68342;52.598;13.450;2023-04-25T02:55:20;43.64;38.77;54.07;;
37162;Laerm;68342;52.598;13.450;2023-04-25T02:57:45;44.26;40.08;52.82;;
37162;Laerm;68342;52.598;13.450;2023-04-25T03:02:38;46.68;38.06;61.02;;
37162;Laerm;68342;52.598;13.450;2023-04-25T03:05:03;47.15;38.58;61.89;;
37162;Laerm;68342;52.598;13.450;2023-04-25T03:07:29;46.64;38.90;59.95;;
37162;Laerm;68342;52.598;13.450;2023-04-25T03:09:54;46.39;39.05;59.10;;
37162;Laerm;68342;52.598;13.450;2023-04-25T03:12:20;50.14;39.19;66.50;;
37162;Laerm;68342;52.598;13.450;2023-04-25T03:14:45;49.70;39.96;64.54;;
37162;Laerm;68342;52.598;13.450;2023-04-25T03:17:11;47.53;41.06;64.42;;
37162;Laerm;68342;52.598;13.450;2023-04-25T03:19:36;46.14;41.38;55.51;;
37162;Laerm;68342;52.598;13.450;2023-04-25T03:22:01;47.61;41.96;53.34;;
37162;Laerm;68342;52.598;13.450;2023-04-25T03:24:26;46.09;39.44;65.15;;
37162;Laerm;68342;52.598;13.450;2023-04-25T03:26:52;49.73;42.68;65.68;;
37162;Laerm;68342;52.598;13.450;2023-04-25T03:29:17;48.41;41.50;64.42;;
37162;Laerm;68342;52.598;13.450;2023-04-25T03:31:42;50.32;41.44;68.84;;
37162;Laerm;68342;52.598;13.450;2023-04-25T03:34:08;48.55;44.00;55.65;;
37162;Laerm;68342;52.598;13.450;2023-04-25T03:36:33;54.29;42.85;66.63;;
37162;Laerm;68342;52.598;13.450;2023-04-25T03:38:58;54.37;43.76;73.36;;
37162;Laerm;68342;52.598;13.450;2023-04-25T03:41:23;56.83;42.09;74.88;;
37162;Laerm;68342;52.598;13.450;2023-04-25T03:43:49;54.70;44.41;69.36;;
37162;Laerm;68342;52.598;13.450;2023-04-25T03:46:15;51.77;43.77;68.52;;
37162;Laerm;68342;52.598;13.450;2023-04-25T03:48:40;55.82;43.52;76.59;;
37162;Laerm;68342;52.598;13.450;2023-04-25T03:51:05;59.75;42.76;78.25;;
37162;Laerm;68342;52.598;13.450;2023-04-25T03:53:31;55.35;43.37;72.56;;
37162;Laerm;68342;52.598;13.450;2023-04-25T03:55:56;55.83;43.90;71.36;;
37162;Laerm;68342;52.598;13.450;2023-04-25T03:58:21;54.25;43.35;70.89;;
37162;Laerm;68342;52.598;13.450;2023-04-25T04:00:48;56.67;44.83;76.68;;
37162;Laerm;68342;52.598;13.450;2023-04-25T04:03:13;56.04;44.01;77.18;;
37162;Laerm;68342;52.598;13.450;2023-04-25T04:05:39;50.85;42.95;67.43;;
37162;Laerm;68342;52.598;13.450;2023-04-25T04:08:05;54.99;43.76;69.92;;
37162;Laerm;68342;52.598;13.450;2023-04-25T04:10:33;50.59;43.41;67.94;;
37162;Laerm;68342;52.598;13.450;2023-04-25T04:12:58;48.09;43.54;54.74;;
37162;Laerm;68342;52.598;13.450;2023-04-25T04:15:23;48.19;44.07;54.54;;
37162;Laerm;68342;52.598;13.450;2023-04-25T04:17:49;50.42;44.35;62.27;;
37162;Laerm;68342;52.598;13.450;2023-04-25T04:20:14;52.44;44.38;67.05;;
37162;Laerm;68342;52.598;13.450;2023-04-25T04:22:39;52.65;44.33;69.45;;
37162;Laerm;68342;52.598;13.450;2023-04-25T04:25:05;48.70;44.56;57.94;;
37162;Laerm;68342;52.598;13.450;2023-04-25T04:27:31;48.06;44.15;56.55;;
37162;Laerm;68342;52.598;13.450;2023-04-25T04:29:56;48.19;44.14;60.84;;
37162;Laerm;68342;52.598;13.450;2023-04-25T04:32:22;48.46;44.07;56.83;;
37162;Laerm;68342;52.598;13.450;2023-04-25T04:34:48;50.16;44.53;64.88;;
37162;Laerm;68342;52.598;13.450;2023-04-25T04:37:14;48.68;44.15;59.56;;
37162;Laerm;68342;52.598;13.450;2023-04-25T04:39:39;49.09;44.42;67.46;;
37162;Laerm;68342;52.598;13.450;2023-04-25T04:42:05;48.88;43.95;65.10;;
37162;Laerm;68342;52.598;13.450;2023-04-25T04:44:30;49.69;44.00;67.74;;
37162;Laerm;68342;52.598;13.450;2023-04-25T04:46:59;48.17;43.37;58.67;;
37162;Laerm;68342;52.598;13.450;2023-04-25T04:49:24;47.87;43.93;61.51;;
37162;Laerm;68342;52.598;13.450;2023-04-25T04:51:50;48.12;42.95;61.78;;
37162;Laerm;68342;52.598;13.450;2023-04-25T04:54:15;51.66;43.99;70.57;;
37162;Laerm;68342;52.598;13.450;2023-04-25T04:56:40;50.48;43.15;68.86;;
37162;Laerm;68342;52.598;13.450;2023-04-25T04:59:06;49.19;42.02;70.76;;
37162;Laerm;68342;52.598;13.450;2023-04-25T05:01:32;49.76;42.76;67.32;;
37162;Laerm;68342;52.598;13.450;2023-04-25T05:03:57;49.63;41.69;72.20;;
37162;Laerm;68342;52.598;13.450;2023-04-25T05:06:25;49.00;43.72;66.15;;
37162;Laerm;68342;52.598;13.450;2023-04-25T05:08:50;47.84;43.95;59.46;;
37162;Laerm;68342;52.598;13.450;2023-04-25T05:11:16;47.33;43.05;54.31;;
37162;Laerm;68342;52.598;13.450;2023-04-25T05:13:41;49.16;43.79;55.48;;
37162;Laerm;68342;52.598;13.450;2023-04-25T05:16:06;49.48;44.49;55.39;;
37162;Laerm;68342;52.598;13.450;2023-04-25T05:18:31;50.72;45.71;67.18;;
37162;Laerm;68342;52.598;13.450;2023-04-25T05:20:57;48.81;44.18;58.56;;
37162;Laerm;68342;52.598;13.450;2023-04-25T05:23:22;50.55;43.46;71.52;;
37162;Laerm;68342;52.598;13.450;2023-04-25T05:25:47;48.22;43.37;55.39;;
37162;Laerm;68342;52.598;13.450;2023-04-25T05:28:13;47.31;43.11;59.17;;
37162;Laerm;68342;52.598;13.450;2023-04-25T05:30:38;47.31;42.34;63.66;;
37162;Laerm;68342;52.598;13.450;2023-04-25T05:33:03;50.01;43.33;70.67;;
37162;Laerm;68342;52.598;13.450;2023-04-25T05:35:29;51.02;45.50;59.68;;
37162;Laerm;68342;52.598;13.450;2023-04-25T05:37:54;48.92;44.64;60.20;;
37162;Laerm;68342;52.598;13.450;2023-04-25T05:40:19;48.89;44.67;58.00;;
37162;Laerm;68342;52.598;13.450;2023-04-25T05:42:45;49.71;44.24;68.13;;
37162;Laerm;68342;52.598;13.450;2023-04-25T05:45:10;48.73;44.17;64.61;;
37162;Laerm;68342;52.598;13.450;2023-04-25T05:47:35;50.21;43.78;66.87;;
37162;Laerm;68342;52.598;13.450;2023-04-25T05:50:00;47.91;43.46;57.51;;
37162;Laerm;68342;52.598;13.450;2023-04-25T05:52:26;49.10;43.33;72.85;;
37162;Laerm;68342;52.598;13.450;2023-04-25T05:54:51;47.74;42.80;63.21;;
37162;Laerm;68342;52.598;13.450;2023-04-25T05:57:20;47.26;42.73;58.22;;
37162;Laerm;68342;52.598;13.450;2023-04-25T05:59:45;46.78;43.02;59.85;;
37162;Laerm;68342;52.598;13.450;2023-04-25T06:02:11;48.92;43.51;65.38;;
37162;Laerm;68342;52.598;13.450;2023-04-25T06:04:36;48.99;42.26;69.37;;
37162;Laerm;68342;52.598;13.450;2023-04-25T06:07:01;47.04;43.27;58.15;;
37162;Laerm;68342;52.598;13.450;2023-04-25T06:09:26;48.82;44.15;58.41;;
37162;Laerm;68342;52.598;13.450;2023-04-25T06:11:52;48.04;43.43;58.35;;
37162;Laerm;68342;52.598;13.450;2023-04-25T06:14:17;47.11;43.54;53.66;;
37162;Laerm;68342;52.598;13.450;2023-04-25T06:16:42;47.83;43.81;61.37;;
37162;Laerm;68342;52.598;13.450;2023-04-25T06:19:07;49.67;44.92;63.16;;
37162;Laerm;68342;52.598;13.450;2023-04-25T06:21:33;49.40;44.36;65.27;;
37162;Laerm;68342;52.598;13.450;2023-04-25T06:23:58;48.45;42.97;64.33;;
37162;Laerm;68342;52.598;13.450;2023-04-25T06:26:23;47.82;43.48;59.41;;
37162;Laerm;68342;52.598;13.450;2023-04-25T06:28:48;48.14;43.51;64.11;;
37162;Laerm;68342;52.598;13.450;2023-04-25T06:31:13;48.84;44.71;57.73;;
37162;Laerm;68342;52.598;13.450;2023-04-25T06:33:39;48.89;44.03;60.49;;
37162;Laerm;68342;52.598;13.450;2023-04-25T06:36:05;47.84;42.31;59.69;;
37162;Laerm;68342;52.598;13.450;2023-04-25T06:38:30;47.63;42.84;57.27;;
37162;Laerm;68342;52.598;13.450;2023-04-25T06:40:56;48.61;43.20;63.60;;
37162;Laerm;68342;52.598;13.450;2023-04-25T06:43:21;46.46;42.49;59.35;;
37162;Laerm;68342;52.598;13.450;2023-04-25T06:45:46;46.76;42.84;57.81;;
37162;Laerm;68342;52.598;13.450;2023-04-25T06:48:11;46.28;42.43;52.37;;
37162;Laerm;68342;52.598;13.450;2023-04-25T06:50:37;46.66;42.23;52.49;;
37162;Laerm;68342;52.598;13.450;2023-04-25T06:53:02;46.22;42.10;52.15;;
37162;Laerm;68342;52.598;13.450;2023-04-25T06:55:27;47.19;42.53;52.10;;
37162;Laerm;68342;52.598;13.450;2023-04-25T06:57:52;58.90;42.26;76.47;;
37162;Laerm;68342;52.598;13.450;2023-04-25T07:00:18;47.75;41.70;59.57;;
37162;Laerm;68342;52.598;13.450;2023-04-25T07:02:43;48.23;43.17;63.31;;
37162;Laerm;68342;52.598;13.450;2023-04-25T07:05:08;48.76;43.15;62.45;;
37162;Laerm;68342;52.598;13.450;2023-04-25T07:07:37;48.27;43.21;61.49;;
37162;Laerm;68342;52.598;13.450;2023-04-25T07:10:07;48.41;44.26;53.44;;
37162;Laerm;68342;52.598;13.450;2023-04-25T07:12:33;48.47;42.63;64.15;;
37162;Laerm;68342;52.598;13.450;2023-04-25T07:15:02;48.23;44.52;55.85;;
37162;Laerm;68342;52.598;13.450;2023-04-25T07:17:33;49.20;44.70;62.32;;
37162;Laerm;68342;52.598;13.450;2023-04-25T07:19:59;48.70;44.56;65.57;;
37162;Laerm;68342;52.598;13.450;2023-04-25T07:22:24;47.42;42.78;62.05;;
37162;Laerm;68342;52.598;13.450;2023-04-25T07:24:51;47.71;43.22;57.71;;
37162;Laerm;68342;52.598;13.450;2023-04-25T07:27:18;47.17;43.66;57.26;;
37162;Laerm;68342;52.598;13.450;2023-04-25T07:29:43;47.53;42.13;67.43;;
37162;Laerm;68342;52.598;13.450;2023-04-25T07:32:08;46.64;42.54;52.31;;
37162;Laerm;68342;52.598;13.450;2023-04-25T07:34:35;47.47;43.84;56.25;;
37162;Laerm;68342;52.598;13.450;2023-04-25T07:37:03;46.85;42.65;57.04;;
37162;Laerm;68342;52.598;13.450;2023-04-25T07:39:29;48.37;42.32;56.24;;
37162;Laerm;68342;52.598;13.450;2023-04-25T07:41:54;49.57;43.37;63.11;;
37162;Laerm;68342;52.598;13.450;2023-04-25T07:44:19;47.84;43.45;58.69;;
37162;Laerm;68342;52.598;13.450;2023-04-25T07:46:44;49.84;43.21;60.29;;
37162;Laerm;68342;52.598;13.450;2023-04-25T07:49:10;48.24;42.73;58.35;;
37162;Laerm;68342;52.598;13.450;2023-04-25T07:51:35;48.55;44.29;60.98;;
37162;Laerm;68342;52.598;13.450;2023-04-25T07:54:00;48.07;43.69;59.12;;
37162;Laerm;68342;52.598;13.450;2023-04-25T07:56:26;47.02;41.50;56.75;;
37162;Laerm;68342;52.598;13.450;2023-04-25T07:58:51;46.62;42.04;59.84;;
37162;Laerm;68342;52.598;13.450;2023-04-25T08:01:16;46.13;40.64;59.63;;
37162;Laerm;68342;52.598;13.450;2023-04-25T08:03:42;48.38;43.61;61.71;;
37162;Laerm;68342;52.598;13.450;2023-04-25T08:06:07;48.67;42.76;59.81;;
37162;Laerm;68342;52.598;13.450;2023-04-25T08:08:32;48.01;42.86;58.41;;
37162;Laerm;68342;52.598;13.450;2023-04-25T08:10:57;48.20;42.40;58.16;;
37162;Laerm;68342;52.598;13.450;2023-04-25T08:13:22;47.27;43.71;54.74;;
37162;Laerm;68342;52.598;13.450;2023-04-25T08:15:48;47.87;43.15;59.97;;
37162;Laerm;68342;52.598;13.450;2023-04-25T08:18:14;47.95;43.67;58.23;;
37162;Laerm;68342;52.598;13.450;2023-04-25T08:20:39;47.02;42.21;56.55;;
37162;Laerm;68342;52.598;13.450;2023-04-25T08:23:05;48.55;43.17;61.26;;
37162;Laerm;68342;52.598;13.450;2023-04-25T08:25:31;47.40;42.64;57.15;;
37162;Laerm;68342;52.598;13.450;2023-04-25T08:27:56;45.35;41.45;54.41;;
37162;Laerm;68342;52.598;13.450;2023-04-25T08:30:22;45.21;40.14;50.45;;
37162;Laerm;68342;52.598;13.450;2023-04-25T08:32:47;45.57;41.23;53.04;;
37162;Laerm;68342;52.598;13.450;2023-04-25T08:35:12;44.64;40.48;58.76;;
37162;Laerm;68342;52.598;13.450;2023-04-25T08:37:38;45.83;41.49;54.04;;
37162;Laerm;68342;52.598;13.450;2023-04-25T08:40:03;44.96;40.86;52.41;;
37162;Laerm;68342;52.598;13.450;2023-04-25T08:42:33;46.42;41.10;58.70;;
37162;Laerm;68342;52.598;13.450;2023-04-25T08:44:59;49.45;42.48;61.61;;
37162;Laerm;68342;52.598;13.450;2023-04-25T08:47:25;50.19;43.29;63.67;;
37162;Laerm;68342;52.598;13.450;2023-04-25T08:49:53;47.96;42.88;60.46;;
37162;Laerm;68342;52.598;13.450;2023-04-25T08:52:21;45.79;41.77;53.56;;
37162;Laerm;68342;52.598;13.450;2023-04-25T08:54:47;46.51;41.23;58.84;;
37162;Laerm;68342;52.598;13.450;2023-04-25T08:57:13;46.74;41.83;60.09;;
37162;Laerm;68342;52.598;13.450;2023-04-25T08:59:40;47.04;42.06;61.44;;
37162;Laerm;68342;52.598;13.450;2023-04-25T09:02:09;45.81;40.83;65.95;;
37162;Laerm;68342;52.598;13.450;2023-04-25T09:04:39;46.74;41.57;68.60;;
37162;Laerm;68342;52.598;13.450;2023-04-25T09:07:04;49.57;41.93;75.21;;
37162;Laerm;68342;52.598;13.450;2023-04-25T09:09:30;47.46;41.44;57.39;;
37162;Laerm;68342;52.598;13.450;2023-04-25T09:11:55;48.93;43.04;57.35;;
37162;Laerm;68342;52.598;13.450;2023-04-25T09:14:21;47.41;40.73;58.73;;
37162;Laerm;68342;52.598;13.450;2023-04-25T09:19:22;51.06;47.99;66.50;;
37162;Laerm;68342;52.598;13.450;2023-04-25T09:21:51;49.24;42.63;61.42;;
37162;Laerm;68342;52.598;13.450;2023-04-25T09:24:19;47.19;41.04;60.53;;
37162;Laerm;68342;52.598;13.450;2023-04-25T09:26:44;48.97;41.80;69.19;;
37162;Laerm;68342;52.598;13.450;2023-04-25T09:29:09;45.92;41.40;56.35;;
37162;Laerm;68342;52.598;13.450;2023-04-25T09:31:35;46.75;41.55;55.57;;
37162;Laerm;68342;52.598;13.450;2023-04-25T09:34:01;46.59;41.88;56.21;;
37162;Laerm;68342;52.598;13.450;2023-04-25T09:36:27;46.47;40.71;59.75;;
37162;Laerm;68342;52.598;13.450;2023-04-25T09:38:54;47.26;42.75;58.25;;
37162;Laerm;68342;52.598;13.450;2023-04-25T09:41:23;47.48;42.97;64.61;;
37162;Laerm;68342;52.598;13.450;2023-04-25T09:43:49;46.56;41.35;57.80;;
37162;Laerm;68342;52.598;13.450;2023-04-25T09:46:14;48.61;44.24;58.09;;
37162;Laerm;68342;52.598;13.450;2023-04-25T09:48:40;49.44;43.28;61.24;;
37162;Laerm;68342;52.598;13.450;2023-04-25T09:51:13;48.74;44.05;68.23;;
37162;Laerm;68342;52.598;13.450;2023-04-25T09:53:45;47.89;42.86;68.84;;
37162;Laerm;68342;52.598;13.450;2023-04-25T09:56:16;46.23;41.15;57.26;;
37162;Laerm;68342;52.598;13.450;2023-04-25T09:58:41;45.86;40.84;59.66;;
37162;Laerm;68342;52.598;13.450;2023-04-25T10:01:09;45.53;41.43;56.62;;
37162;Laerm;68342;52.598;13.450;2023-04-25T10:03:35;46.39;41.20;66.44;;
37162;Laerm;68342;52.598;13.450;2023-04-25T10:06:01;47.55;40.84;69.11;;
37162;Laerm;68342;52.598;13.450;2023-04-25T10:08:31;49.17;41.45;62.44;;
37162;Laerm;68342;52.598;13.450;2023-04-25T10:11:01;47.52;41.28;60.05;;
37162;Laerm;68342;52.598;13.450;2023-04-25T10:13:29;49.17;40.61;64.16;;
37162;Laerm;68342;52.598;13.450;2023-04-25T10:15:54;50.52;44.74;67.96;;
37162;Laerm;68342;52.598;13.450;2023-04-25T10:18:20;50.65;43.40;68.63;;
37162;Laerm;68342;52.598;13.450;2023-04-25T10:20:46;49.25;43.13;65.48;;
37162;Laerm;68342;52.598;13.450;2023-04-25T10:23:12;50.16;43.32;69.65;;
37162;Laerm;68342;52.598;13.450;2023-04-25T10:25:38;49.85;43.93;69.19;;
37162;Laerm;68342;52.598;13.450;2023-04-25T10:28:04;51.03;43.68;70.80;;
37162;Laerm;68342;52.598;13.450;2023-04-25T10:30:30;50.87;43.68;77.16;;
37162;Laerm;68342;52.598;13.450;2023-04-25T10:32:55;52.42;43.26;68.51;;
37162;Laerm;68342;52.598;13.450;2023-04-25T10:35:27;48.34;43.27;66.17;;
37162;Laerm;68342;52.598;13.450;2023-04-25T10:37:56;50.03;44.57;67.35;;
37162;Laerm;68342;52.598;13.450;2023-04-25T10:40:22;49.27;42.32;68.81;;
37162;Laerm;68342;52.598;13.450;2023-04-25T10:42:48;53.58;42.88;62.62;;
37162;Laerm;68342;52.598;13.450;2023-04-25T10:45:13;53.72;42.76;74.11;;
37162;Laerm;68342;52.598;13.450;2023-04-25T10:47:43;50.46;43.48;72.63;;
37162;Laerm;68342;52.598;13.450;2023-04-25T10:50:09;51.31;43.57;62.40;;
37162;Laerm;68342;52.598;13.450;2023-04-25T10:52:34;49.62;42.90;72.40;;
37162;Laerm;68342;52.598;13.450;2023-04-25T10:55:00;50.08;42.64;62.19;;
37162;Laerm;68342;52.598;13.450;2023-04-25T11:00:10;50.22;42.56;63.28;;
37162;Laerm;68342;52.598;13.450;2023-04-25T11:02:45;49.54;41.93;66.41;;
37162;Laerm;68342;52.598;13.450;2023-04-25T11:05:45;51.08;43.65;69.99;;
37162;Laerm;68342;52.598;13.450;2023-04-25T11:08:03;50.66;44.14;67.57;;
37162;Laerm;68342;52.598;13.450;2023-04-25T11:10:35;50.54;45.23;62.55;;
37162;Laerm;68342;52.598;13.450;2023-04-25T11:13:01;48.60;44.03;59.57;;
37162;Laerm;68342;52.598;13.450;2023-04-25T11:15:27;51.67;44.41;69.94;;
37162;Laerm;68342;52.598;13.450;2023-04-25T11:17:53;48.34;42.47;65.30;;
37162;Laerm;68342;52.598;13.450;2023-04-25T11:20:18;50.57;44.33;62.55;;
37162;Laerm;68342;52.598;13.450;2023-04-25T11:22:44;48.82;43.58;62.35;;
37162;Laerm;68342;52.598;13.450;2023-04-25T11:25:11;50.93;44.25;60.09;;
37162;Laerm;68342;52.598;13.450;2023-04-25T11:30:17;50.92;44.02;63.16;;
37162;Laerm;68342;52.598;13.450;2023-04-25T11:32:43;50.48;43.43;63.74;;
37162;Laerm;68342;52.598;13.450;2023-04-25T11:35:11;49.29;42.20;62.19;;
37162;Laerm;68342;52.598;13.450;2023-04-25T11:37:37;50.51;42.30;63.54;;
37162;Laerm;68342;52.598;13.450;2023-04-25T11:40:03;49.81;41.70;62.20;;
37162;Laerm;68342;52.598;13.450;2023-04-25T11:42:31;50.04;43.54;60.89;;
37162;Laerm;68342;52.598;13.450;2023-04-25T11:44:56;51.52;45.13;59.45;;
37162;Laerm;68342;52.598;13.450;2023-04-25T11:47:27;52.15;43.82;67.52;;
37162;Laerm;68342;52.598;13.450;2023-04-25T11:49:52;51.47;43.65;68.54;;
37162;Laerm;68342;52.598;13.450;2023-04-25T11:52:18;50.46;43.51;61.59;;
37162;Laerm;68342;52.598;13.450;2023-04-25T11:54:44;52.06;43.49;69.20;;
37162;Laerm;68342;52.598;13.450;2023-04-25T11:57:09;51.58;43.31;65.37;;
37162;Laerm;68342;52.598;13.450;2023-04-25T11:59:34;51.15;42.96;64.93;;
37162;Laerm;68342;52.598;13.450;2023-04-25T12:02:00;54.35;42.06;65.15;;
37162;Laerm;68342;52.598;13.450;2023-04-25T12:04:29;56.32;40.12;67.52;;
37162;Laerm;68342;52.598;13.450;2023-04-25T12:06:54;49.54;42.32;65.03;;
37162;Laerm;68342;52.598;13.450;2023-04-25T12:09:21;48.91;42.06;61.16;;
37162;Laerm;68342;52.598;13.450;2023-04-25T12:11:56;50.62;43.62;66.52;;
37162;Laerm;68342;52.598;13.450;2023-04-25T12:14:29;49.33;44.23;65.64;;
37162;Laerm;68342;52.598;13.450;2023-04-25T12:16:55;49.03;43.50;66.35;;
37162;Laerm;68342;52.598;13.450;2023-04-25T12:19:22;48.48;42.65;64.30;;
37162;Laerm;68342;52.598;13.450;2023-04-25T12:21:48;49.89;42.50;62.05;;
37162;Laerm;68342;52.598;13.450;2023-04-25T12:24:14;49.50;42.66;65.61;;
37162;Laerm;68342;52.598;13.450;2023-04-25T12:26:47;47.95;42.67;58.68;;
37162;Laerm;68342;52.598;13.450;2023-04-25T12:29:16;48.33;42.85;63.69;;
37162;Laerm;68342;52.598;13.450;2023-04-25T12:31:42;47.43;42.86;58.44;;
37162;Laerm;68342;52.598;13.450;2023-04-25T12:34:07;47.73;41.74;63.18;;
37162;Laerm;68342;52.598;13.450;2023-04-25T12:36:32;49.92;43.36;60.96;;
37162;Laerm;68342;52.598;13.450;2023-04-25T12:38:58;49.10;41.49;63.73;;
37162;Laerm;68342;52.598;13.450;2023-04-25T12:41:28;49.76;42.10;66.38;;
37162;Laerm;68342;52.598;13.450;2023-04-25T12:43:54;47.02;42.34;65.94;;
37162;Laerm;68342;52.598;13.450;2023-04-25T12:46:19;48.26;44.13;65.62;;
37162;Laerm;68342;52.598;13.450;2023-04-25T12:48:44;45.41;41.55;55.13;;
37162;Laerm;68342;52.598;13.450;2023-04-25T12:51:10;48.92;41.95;66.15;;
37162;Laerm;68342;52.598;13.450;2023-04-25T12:53:35;46.93;42.09;62.49;;
37162;Laerm;68342;52.598;13.450;2023-04-25T12:56:02;47.82;42.45;66.60;;
37162;Laerm;68342;52.598;13.450;2023-04-25T12:58:28;48.46;42.46;61.18;;
37162;Laerm;68342;52.598;13.450;2023-04-25T13:00:53;48.83;43.85;63.62;;
37162;Laerm;68342;52.598;13.450;2023-04-25T13:03:18;49.49;44.49;64.13;;
37162;Laerm;68342;52.598;13.450;2023-04-25T13:05:44;47.94;43.37;58.26;;
37162;Laerm;68342;52.598;13.450;2023-04-25T13:08:09;48.55;43.14;59.66;;
37162;Laerm;68342;52.598;13.450;2023-04-25T13:10:34;53.56;45.27;82.95;;
37162;Laerm;68342;52.598;13.450;2023-04-25T13:13:01;48.82;44.25;57.65;;
37162;Laerm;68342;52.598;13.450;2023-04-25T13:15:27;49.60;44.05;63.12;;
37162;Laerm;68342;52.598;13.450;2023-04-25T13:17:52;51.04;43.32;67.17;;
37162;Laerm;68342;52.598;13.450;2023-04-25T13:20:18;54.10;44.74;72.75;;
37162;Laerm;68342;52.598;13.450;2023-04-25T13:22:43;54.26;45.07;73.34;;
37162;Laerm;68342;52.598;13.450;2023-04-25T13:25:10;51.12;44.05;78.58;;
37162;Laerm;68342;52.598;13.450;2023-04-25T13:27:36;51.38;46.29;72.72;;
37162;Laerm;68342;52.598;13.450;2023-04-25T13:30:03;51.64;44.36;66.71;;
37162;Laerm;68342;52.598;13.450;2023-04-25T13:32:32;50.43;43.46;62.61;;
37162;Laerm;68342;52.598;13.450;2023-04-25T13:34:58;52.50;45.14;67.34;;